Terminal Aerodrome Forecast
Issued by NWS

Home | Current Version | Previous Version | Text Only | Print | Product List | Glossary On
Versions: 1 2 3 4 5 6 7 8 9 10 11 12 13 14 15
587
FTUS46 KSEW 261726
TAFOLM
TAF
KOLM 261726Z 2618/2718 19007KT P6SM OVC013
     FM262000 29006KT P6SM BKN020
     FM262100 30006KT P6SM SCT250
     FM270400 18003KT P6SM SCT250
     FM271100 00000KT P6SM OVC012=

USA.gov is the U.S. government's official web portal to all federal, state and local government web resources and services.